createdAt,value
2017-09-26T00:01:38.090Z,10.00
2017-09-26T00:04:07.087Z,10.00
2017-09-26T00:06:35.261Z,10.00
2017-09-26T00:09:03.408Z,10.00
2017-09-26T00:11:31.551Z,10.00
2017-09-26T00:13:59.714Z,9.90
2017-09-26T00:16:28.624Z,9.90
2017-09-26T00:18:56.886Z,9.90
2017-09-26T00:21:25.042Z,9.80
2017-09-26T00:23:53.968Z,9.90
2017-09-26T00:26:22.122Z,9.80
2017-09-26T00:28:50.263Z,9.80
2017-09-26T00:31:18.419Z,9.80
2017-09-26T00:33:46.576Z,9.80
2017-09-26T00:36:14.719Z,9.80
2017-09-26T00:38:43.003Z,9.80
2017-09-26T00:41:11.132Z,9.70
2017-09-26T00:43:40.039Z,9.70
2017-09-26T00:46:08.972Z,9.70
2017-09-26T00:48:37.884Z,9.70
2017-09-26T00:51:06.060Z,9.60
2017-09-26T00:53:34.201Z,9.60
2017-09-26T00:56:02.356Z,9.60
2017-09-26T00:58:30.514Z,9.60
2017-09-26T01:00:58.778Z,9.50
2017-09-26T01:03:26.926Z,9.50
2017-09-26T01:05:58.970Z,9.50
2017-09-26T01:08:27.108Z,9.50
2017-09-26T01:10:55.250Z,9.40
2017-09-26T01:13:24.273Z,9.40
2017-09-26T01:15:52.410Z,9.30
2017-09-26T01:18:21.310Z,9.30
2017-09-26T01:20:49.519Z,9.30
2017-09-26T01:23:17.654Z,9.30
2017-09-26T01:25:45.823Z,9.30
2017-09-26T01:28:14.728Z,9.30
2017-09-26T01:30:42.939Z,9.20
2017-09-26T01:33:11.192Z,9.30
2017-09-26T01:35:39.316Z,9.30
2017-09-26T01:38:08.246Z,9.20
2017-09-26T01:43:44.316Z,9.20
2017-09-26T01:46:12.505Z,9.20
2017-09-26T01:48:40.649Z,9.20
2017-09-26T01:51:08.837Z,9.20
2017-09-26T01:53:37.096Z,9.20
2017-09-26T01:56:05.230Z,9.20
2017-09-26T01:58:35.175Z,9.20
2017-09-26T02:01:03.463Z,9.20
2017-09-26T02:03:31.607Z,9.30
2017-09-26T02:06:00.507Z,9.20
2017-09-26T02:08:28.766Z,9.20
2017-09-26T02:10:56.911Z,9.20
2017-09-26T02:13:25.045Z,9.20
2017-09-26T02:15:53.207Z,9.20
2017-09-26T02:18:21.354Z,9.20
2017-09-26T02:20:50.305Z,9.20
2017-09-26T02:23:18.448Z,9.20
2017-09-26T02:25:46.572Z,9.20
2017-09-26T02:28:14.753Z,9.20
2017-09-26T02:30:43.844Z,9.20
2017-09-26T02:33:11.984Z,9.20
2017-09-26T02:35:40.243Z,9.20
2017-09-26T02:38:08.372Z,9.20
2017-09-26T02:40:37.271Z,9.20
2017-09-26T02:43:05.443Z,9.10
2017-09-26T02:45:33.592Z,9.20
2017-09-26T02:48:01.740Z,9.10
2017-09-26T02:50:30.002Z,9.20
2017-09-26T02:52:58.127Z,9.10
2017-09-26T02:55:27.032Z,9.10
2017-09-26T02:57:55.214Z,9.10
2017-09-26T03:00:23.345Z,9.00
2017-09-26T03:02:52.279Z,9.00
2017-09-26T03:05:20.409Z,9.00
2017-09-26T03:07:49.302Z,9.00
2017-09-26T03:10:18.224Z,9.00
2017-09-26T03:12:46.411Z,9.00
2017-09-26T03:15:14.571Z,9.00
2017-09-26T03:17:42.711Z,8.90
2017-09-26T03:20:11.650Z,8.90
2017-09-26T03:22:39.770Z,8.80
2017-09-26T03:25:08.694Z,8.80
2017-09-26T03:27:36.831Z,8.80
2017-09-26T03:30:05.755Z,8.80
2017-09-26T03:32:33.893Z,8.80
2017-09-26T03:35:02.935Z,8.80
2017-09-26T03:37:31.072Z,8.70
2017-09-26T03:39:59.207Z,8.70
2017-09-26T03:42:27.379Z,8.70
2017-09-26T03:44:55.514Z,8.70
2017-09-26T03:47:23.757Z,8.70
2017-09-26T03:49:52.616Z,8.70
2017-09-26T03:52:21.519Z,8.70
2017-09-26T03:54:50.444Z,8.70
2017-09-26T03:57:18.566Z,8.70
2017-09-26T03:59:46.718Z,8.70
2017-09-26T04:02:14.857Z,8.70
2017-09-26T04:04:43.027Z,8.70
2017-09-26T04:07:11.150Z,8.80
2017-09-26T04:09:39.298Z,8.80
2017-09-26T04:12:07.443Z,8.90
2017-09-26T04:14:35.586Z,8.90
2017-09-26T04:17:04.478Z,8.90
2017-09-26T04:19:33.415Z,9.00
2017-09-26T04:22:01.561Z,8.90
2017-09-26T04:24:29.703Z,9.00
2017-09-26T04:26:58.733Z,9.00
2017-09-26T04:29:26.854Z,9.00
2017-09-26T04:31:55.773Z,9.10
2017-09-26T04:34:23.940Z,9.00
2017-09-26T04:36:52.065Z,9.10
2017-09-26T04:39:20.217Z,9.10
2017-09-26T04:41:48.349Z,9.20
2017-09-26T04:44:17.266Z,9.20
2017-09-26T04:46:45.384Z,9.20
2017-09-26T04:49:13.532Z,9.30
2017-09-26T04:51:41.694Z,9.40
2017-09-26T04:54:10.669Z,9.50
2017-09-26T04:56:38.830Z,9.50
2017-09-26T04:59:06.975Z,9.50
2017-09-26T05:01:35.891Z,9.60
2017-09-26T05:04:04.027Z,9.60
2017-09-26T05:06:32.162Z,9.70
2017-09-26T05:09:01.091Z,9.80
2017-09-26T05:11:30.004Z,9.80
2017-09-26T05:13:58.264Z,9.80
2017-09-26T05:16:27.155Z,9.90
2017-09-26T05:18:56.053Z,9.90
2017-09-26T05:21:24.211Z,9.90
2017-09-26T05:23:53.093Z,9.90
2017-09-26T05:26:22.020Z,10.00
2017-09-26T05:28:50.163Z,10.00
2017-09-26T05:31:19.107Z,10.10
2017-09-26T05:33:47.243Z,10.00
2017-09-26T05:36:15.380Z,10.10
2017-09-26T05:38:43.538Z,10.20
2017-09-26T05:41:11.671Z,10.20
2017-09-26T05:43:39.825Z,10.20
2017-09-26T05:46:07.970Z,10.30
2017-09-26T05:48:36.101Z,10.30
2017-09-26T05:51:04.272Z,10.30
2017-09-26T05:53:32.413Z,10.40
2017-09-26T05:56:00.662Z,10.40
2017-09-26T05:58:29.571Z,10.40
2017-09-26T06:00:57.705Z,10.40
2017-09-26T06:03:25.859Z,10.50
2017-09-26T06:05:54.004Z,10.50
2017-09-26T06:08:22.275Z,10.60
2017-09-26T06:10:50.421Z,10.60
2017-09-26T06:13:19.327Z,10.70
2017-09-26T06:15:47.491Z,10.70
2017-09-26T06:18:15.631Z,10.70
2017-09-26T06:20:43.789Z,10.80
2017-09-26T06:23:12.035Z,10.90
2017-09-26T06:25:40.209Z,11.00
2017-09-26T06:28:08.360Z,11.10
2017-09-26T06:30:36.488Z,11.20
2017-09-26T06:33:04.652Z,11.30
2017-09-26T06:35:32.802Z,11.40
2017-09-26T06:38:00.959Z,11.50
2017-09-26T06:40:29.082Z,11.60
2017-09-26T06:42:57.259Z,11.80
2017-09-26T06:45:26.178Z,12.20
2017-09-26T06:47:54.342Z,12.20
2017-09-26T06:50:23.246Z,12.70
2017-09-26T06:52:51.430Z,12.70
2017-09-26T06:55:19.573Z,12.90
2017-09-26T06:57:48.662Z,13.40
2017-09-26T07:00:17.556Z,13.60
2017-09-26T07:02:46.470Z,13.80
2017-09-26T07:05:14.633Z,13.80
2017-09-26T07:07:42.778Z,14.00
2017-09-26T07:10:11.813Z,14.40
2017-09-26T07:12:39.949Z,14.40
2017-09-26T07:15:08.975Z,14.80
2017-09-26T07:17:37.136Z,14.80
2017-09-26T07:20:05.283Z,15.10
2017-09-26T07:22:34.214Z,15.50
2017-09-26T07:25:02.377Z,15.50
2017-09-26T07:27:30.534Z,15.70
2017-09-26T07:29:58.665Z,15.90
2017-09-26T07:32:26.923Z,16.20
2017-09-26T07:34:55.061Z,16.50
2017-09-26T07:37:23.181Z,16.70
2017-09-26T07:39:51.325Z,16.90
2017-09-26T07:42:19.470Z,17.10
2017-09-26T07:44:47.650Z,17.10
2017-09-26T07:47:15.825Z,17.30
2017-09-26T07:49:43.950Z,17.40
2017-09-26T07:52:12.887Z,17.60
2017-09-26T07:54:41.025Z,17.60
2017-09-26T07:57:09.967Z,17.90
2017-09-26T07:59:38.107Z,17.90
2017-09-26T08:02:06.722Z,18.00
2017-09-26T08:04:35.301Z,18.10
2017-09-26T08:07:03.853Z,18.00
2017-09-26T08:09:32.458Z,17.90
2017-09-26T08:12:00.590Z,17.80
2017-09-26T08:14:29.614Z,17.80
2017-09-26T08:16:57.760Z,17.80
2017-09-26T08:19:25.884Z,17.90
2017-09-26T08:21:54.059Z,18.00
2017-09-26T08:24:22.208Z,18.10
2017-09-26T08:26:50.384Z,18.20
2017-09-26T08:29:19.284Z,18.40
2017-09-26T08:31:47.429Z,18.40
2017-09-26T08:34:15.605Z,18.50
2017-09-26T08:36:43.749Z,18.60
2017-09-26T08:39:12.025Z,18.70
2017-09-26T08:41:40.166Z,18.80
2017-09-26T08:44:08.307Z,18.90
2017-09-26T08:46:36.473Z,19.00
2017-09-26T08:49:04.611Z,19.10
2017-09-26T08:51:32.779Z,19.10
2017-09-26T08:54:00.919Z,19.20
2017-09-26T08:56:29.064Z,19.20
2017-09-26T08:58:57.245Z,19.10
2017-09-26T09:01:25.398Z,19.20
2017-09-26T09:03:53.568Z,19.30
2017-09-26T09:06:21.693Z,19.30
2017-09-26T09:08:50.585Z,19.30
2017-09-26T09:11:18.775Z,19.30
2017-09-26T09:13:46.915Z,19.30
2017-09-26T09:16:15.960Z,19.50
2017-09-26T09:18:44.085Z,19.50
2017-09-26T09:21:12.982Z,19.70
2017-09-26T09:23:41.910Z,19.70
2017-09-26T09:26:10.044Z,19.60
2017-09-26T09:28:39.066Z,19.60
2017-09-26T09:31:07.188Z,19.60
2017-09-26T09:33:35.312Z,19.70
2017-09-26T09:36:03.465Z,19.70
2017-09-26T09:38:31.614Z,19.60
2017-09-26T09:41:00.650Z,19.90
2017-09-26T09:43:28.777Z,19.80
2017-09-26T09:45:57.687Z,20.50
2017-09-26T09:48:25.864Z,20.50
2017-09-26T09:50:54.003Z,20.80
2017-09-26T09:53:22.175Z,21.00
2017-09-26T09:55:50.327Z,21.20
2017-09-26T09:58:18.467Z,21.10
2017-09-26T10:00:46.629Z,21.20
2017-09-26T10:03:14.774Z,21.30
2017-09-26T10:05:43.718Z,21.60
2017-09-26T10:08:11.865Z,21.60
2017-09-26T10:10:40.007Z,21.70
2017-09-26T10:13:08.944Z,21.90
2017-09-26T10:15:37.074Z,21.90
2017-09-26T10:18:06.089Z,22.10
2017-09-26T10:20:34.219Z,22.00
2017-09-26T10:23:02.355Z,22.10
2017-09-26T10:25:30.510Z,22.00
2017-09-26T10:27:58.649Z,22.10
2017-09-26T10:30:27.566Z,21.90
2017-09-26T10:32:55.692Z,21.90
2017-09-26T10:35:23.855Z,21.90
2017-09-26T10:37:51.999Z,21.80
2017-09-26T10:40:20.161Z,21.60
2017-09-26T10:42:48.290Z,21.40
2017-09-26T10:45:17.226Z,21.10
2017-09-26T10:47:45.379Z,21.10
2017-09-26T10:50:13.537Z,20.90
2017-09-26T10:52:42.466Z,20.50
2017-09-26T10:55:10.599Z,20.50
2017-09-26T10:57:38.795Z,20.40
2017-09-26T11:00:06.941Z,20.30
2017-09-26T11:02:35.112Z,20.10
2017-09-26T11:05:04.015Z,19.80
2017-09-26T11:07:32.155Z,19.80
2017-09-26T11:10:01.098Z,19.60
2017-09-26T11:12:29.249Z,19.50
2017-09-26T11:14:57.423Z,19.50
2017-09-26T11:17:25.555Z,19.40
2017-09-26T11:19:53.694Z,19.30
2017-09-26T11:22:21.849Z,19.30
2017-09-26T11:24:49.989Z,19.20
2017-09-26T11:27:18.939Z,19.10
2017-09-26T11:29:47.062Z,19.10
2017-09-26T11:32:15.247Z,19.00
2017-09-26T11:34:43.390Z,19.10
2017-09-26T11:37:12.286Z,19.00
2017-09-26T11:39:41.219Z,18.90
2017-09-26T11:42:09.360Z,18.90
2017-09-26T11:44:37.518Z,18.90
2017-09-26T11:47:06.405Z,18.90
2017-09-26T11:49:35.437Z,18.90
2017-09-26T11:52:03.586Z,18.90
2017-09-26T11:54:31.719Z,18.90
2017-09-26T11:56:59.886Z,18.90
2017-09-26T11:59:28.029Z,18.90
2017-09-26T12:01:56.198Z,18.90
2017-09-26T12:04:24.335Z,18.90
2017-09-26T12:06:52.493Z,18.90
2017-09-26T12:09:21.402Z,18.90
2017-09-26T12:11:49.559Z,18.90
2017-09-26T12:14:18.504Z,18.90
2017-09-26T12:16:46.657Z,18.90
2017-09-26T12:19:14.830Z,18.90
2017-09-26T12:21:42.968Z,18.80
2017-09-26T12:24:11.148Z,18.80
2017-09-26T12:26:39.288Z,18.80
2017-09-26T12:29:07.446Z,18.80
2017-09-26T12:31:35.582Z,18.80
2017-09-26T12:34:03.729Z,18.80
2017-09-26T12:36:31.910Z,18.90
2017-09-26T12:39:00.047Z,18.90
2017-09-26T12:41:28.218Z,18.90
2017-09-26T12:43:56.370Z,18.90
2017-09-26T12:46:24.538Z,18.90
2017-09-26T12:48:53.450Z,18.90
2017-09-26T12:51:21.582Z,18.90
2017-09-26T12:53:49.754Z,18.90
2017-09-26T12:56:17.893Z,18.90
2017-09-26T12:58:46.147Z,18.90
2017-09-26T13:01:15.048Z,19.00
2017-09-26T13:03:43.990Z,19.10
2017-09-26T13:06:12.159Z,19.10
2017-09-26T13:08:40.298Z,19.20
2017-09-26T13:11:08.568Z,19.30
2017-09-26T13:13:36.728Z,19.30
2017-09-26T13:16:05.630Z,19.40
2017-09-26T13:18:33.814Z,19.40
2017-09-26T13:21:01.946Z,19.30
2017-09-26T13:23:31.831Z,19.20
2017-09-26T13:25:59.974Z,19.20
2017-09-26T13:28:28.120Z,19.20
2017-09-26T13:30:57.033Z,19.00
2017-09-26T13:33:25.176Z,19.00
2017-09-26T13:35:54.201Z,19.00
2017-09-26T13:38:22.328Z,19.00
2017-09-26T13:40:51.234Z,18.90
2017-09-26T13:43:19.403Z,18.90
2017-09-26T13:45:47.551Z,18.80
2017-09-26T13:48:15.686Z,18.80
2017-09-26T13:50:43.865Z,18.80
2017-09-26T13:53:12.018Z,18.80
2017-09-26T13:55:40.310Z,18.80
2017-09-26T13:58:08.443Z,18.80
2017-09-26T14:00:36.585Z,18.80
2017-09-26T14:03:04.766Z,18.80
2017-09-26T14:05:33.676Z,18.80
2017-09-26T14:08:01.849Z,18.80
2017-09-26T14:10:29.996Z,18.80
2017-09-26T14:12:58.955Z,18.70
2017-09-26T14:15:27.097Z,18.70
2017-09-26T14:17:55.274Z,18.70
2017-09-26T14:20:23.425Z,18.70
2017-09-26T14:22:51.563Z,18.60
2017-09-26T14:25:19.744Z,18.60
2017-09-26T14:27:47.906Z,18.60
2017-09-26T14:30:16.175Z,18.60
2017-09-26T14:32:44.315Z,18.60
2017-09-26T14:35:12.442Z,18.60
2017-09-26T14:37:41.378Z,18.70
2017-09-26T14:40:09.514Z,18.70
2017-09-26T14:42:38.456Z,18.70
2017-09-26T14:45:06.637Z,18.70
2017-09-26T14:47:34.948Z,18.70
2017-09-26T14:50:03.092Z,18.70
2017-09-26T14:52:31.234Z,18.70
2017-09-26T14:54:59.484Z,18.70
2017-09-26T14:57:27.614Z,18.80
2017-09-26T14:59:56.021Z,18.80
2017-09-26T15:02:24.163Z,18.80
2017-09-26T15:04:52.307Z,18.70
2017-09-26T15:07:20.491Z,18.70
2017-09-26T15:09:48.651Z,18.70
2017-09-26T15:12:16.831Z,18.60
2017-09-26T15:14:44.987Z,18.60
2017-09-26T15:17:13.186Z,18.50
2017-09-26T15:19:41.367Z,18.50
2017-09-26T15:22:09.517Z,18.50
2017-09-26T15:24:37.693Z,18.50
2017-09-26T15:27:05.837Z,18.40
2017-09-26T15:29:33.981Z,18.50
2017-09-26T15:32:02.182Z,18.40
2017-09-26T15:34:30.334Z,18.40
2017-09-26T15:36:58.522Z,18.40
2017-09-26T15:39:26.665Z,18.40
2017-09-26T15:41:55.562Z,18.40
2017-09-26T15:44:23.740Z,18.40
2017-09-26T15:46:51.869Z,18.40
2017-09-26T15:49:20.028Z,18.40
2017-09-26T15:51:48.180Z,18.30
2017-09-26T15:54:17.093Z,18.30
2017-09-26T15:56:45.282Z,18.30
2017-09-26T15:59:13.422Z,18.30
2017-09-26T16:01:41.599Z,18.30
2017-09-26T16:04:09.762Z,18.20
2017-09-26T16:06:37.913Z,18.20
2017-09-26T16:09:06.102Z,18.20
2017-09-26T16:11:34.244Z,18.10
2017-09-26T16:14:02.568Z,18.10
2017-09-26T16:16:30.706Z,18.10
2017-09-26T16:18:58.843Z,18.10
2017-09-26T16:21:27.778Z,18.00
2017-09-26T16:23:55.931Z,18.00
2017-09-26T16:26:24.115Z,18.00
2017-09-26T16:28:52.262Z,18.00
2017-09-26T16:31:20.415Z,17.90
2017-09-26T16:33:49.356Z,17.80
2017-09-26T16:36:17.535Z,17.80
2017-09-26T16:38:45.830Z,17.80
2017-09-26T16:41:13.977Z,17.70
2017-09-26T16:46:12.785Z,17.60
2017-09-26T16:48:40.934Z,17.60
2017-09-26T16:51:11.867Z,17.60
2017-09-26T16:53:53.360Z,17.50
2017-09-26T16:56:22.049Z,17.50
2017-09-26T16:58:50.191Z,17.40
2017-09-26T17:01:18.334Z,17.40
2017-09-26T17:03:46.516Z,17.30
2017-09-26T17:06:15.422Z,17.10
2017-09-26T17:08:44.386Z,17.00
2017-09-26T17:11:12.559Z,17.00
2017-09-26T17:13:40.737Z,16.90
2017-09-26T17:16:08.883Z,16.80
2017-09-26T17:18:37.027Z,16.70
2017-09-26T17:21:05.190Z,16.60
2017-09-26T17:23:33.337Z,16.50
2017-09-26T17:26:03.284Z,16.30
2017-09-26T17:28:31.419Z,16.30
2017-09-26T17:31:00.355Z,16.10
2017-09-26T17:33:28.492Z,16.10
2017-09-26T17:35:56.707Z,16.00
2017-09-26T17:38:24.846Z,15.90
2017-09-26T17:40:52.979Z,15.80
2017-09-26T17:43:21.931Z,15.60
2017-09-26T17:45:50.067Z,15.60
2017-09-26T17:48:18.340Z,15.60
2017-09-26T17:50:46.487Z,15.50
2017-09-26T17:53:14.631Z,15.40
2017-09-26T17:55:42.805Z,15.30
2017-09-26T17:58:10.935Z,15.30
2017-09-26T18:00:39.102Z,15.20
2017-09-26T18:03:07.264Z,15.10
2017-09-26T18:05:36.447Z,15.00
2017-09-26T18:08:05.408Z,14.90
2017-09-26T18:10:33.556Z,14.90
2017-09-26T18:13:01.826Z,14.80
2017-09-26T18:15:30.020Z,14.70
2017-09-26T18:17:58.181Z,14.70
2017-09-26T18:20:26.429Z,14.60
2017-09-26T18:22:54.574Z,14.60
2017-09-26T18:25:23.550Z,14.50
2017-09-26T18:27:52.604Z,14.40
2017-09-26T18:30:21.079Z,14.40
2017-09-26T18:32:49.318Z,14.40
2017-09-26T18:35:18.516Z,14.30
2017-09-26T18:37:47.083Z,14.30
2017-09-26T18:40:15.651Z,14.20
2017-09-26T18:42:45.230Z,14.20
2017-09-26T18:45:15.287Z,14.10
2017-09-26T18:47:44.827Z,14.10
2017-09-26T18:50:14.908Z,14.00
2017-09-26T18:52:44.213Z,14.00
2017-09-26T18:55:13.475Z,14.00
2017-09-26T18:57:42.815Z,13.90
2017-09-26T19:00:12.287Z,13.90
2017-09-26T19:02:41.665Z,13.90
2017-09-26T19:05:11.896Z,13.80
2017-09-26T19:07:41.202Z,13.80
2017-09-26T19:10:10.779Z,13.70
2017-09-26T19:12:40.118Z,13.70
2017-09-26T19:15:09.447Z,13.70
2017-09-26T19:17:38.837Z,13.70
2017-09-26T19:20:08.344Z,13.70
2017-09-26T19:22:39.825Z,13.60
2017-09-26T19:25:09.086Z,13.60
2017-09-26T19:27:38.548Z,13.60
2017-09-26T19:30:08.151Z,13.50
2017-09-26T19:32:37.456Z,13.50
2017-09-26T19:35:06.998Z,13.50
2017-09-26T19:37:36.370Z,13.50
2017-09-26T19:40:05.945Z,13.50
2017-09-26T19:42:36.167Z,13.40
2017-09-26T19:45:05.573Z,13.40
2017-09-26T19:47:34.921Z,13.40
2017-09-26T19:50:04.260Z,13.40
2017-09-26T19:52:33.750Z,13.40
2017-09-26T19:55:03.870Z,13.30
2017-09-26T19:57:34.100Z,13.30
2017-09-26T20:00:03.407Z,13.30
2017-09-26T20:02:33.724Z,13.20
2017-09-26T20:05:03.001Z,13.20
2017-09-26T20:07:32.443Z,13.20
2017-09-26T20:10:01.844Z,13.20
2017-09-26T20:12:31.266Z,13.20
2017-09-26T20:15:00.613Z,13.10
2017-09-26T20:17:30.670Z,13.00
2017-09-26T20:20:00.707Z,13.00
2017-09-26T20:22:29.961Z,13.00
2017-09-26T20:24:59.197Z,12.90
2017-09-26T20:27:28.529Z,12.90
2017-09-26T20:29:57.600Z,12.80
2017-09-26T20:32:27.499Z,12.80
2017-09-26T20:34:55.905Z,12.70
2017-09-26T20:37:24.718Z,12.70
2017-09-26T20:39:52.928Z,12.60
2017-09-26T20:42:21.117Z,12.70
2017-09-26T20:44:49.288Z,12.60
2017-09-26T20:47:17.424Z,12.60
2017-09-26T20:49:45.711Z,12.50
2017-09-26T20:52:13.839Z,12.50
2017-09-26T20:54:42.016Z,12.50
2017-09-26T20:57:10.260Z,12.40
2017-09-26T20:59:39.200Z,12.30
2017-09-26T21:02:07.384Z,12.30
2017-09-26T21:04:35.517Z,12.30
2017-09-26T21:07:03.677Z,12.30
2017-09-26T21:09:32.660Z,12.30
2017-09-26T21:12:01.242Z,12.30
2017-09-26T21:14:30.303Z,12.20
2017-09-26T21:16:58.432Z,12.20
2017-09-26T21:19:26.588Z,12.20
2017-09-26T21:21:54.752Z,12.20
2017-09-26T21:24:22.914Z,12.20
2017-09-26T21:26:51.185Z,12.10
2017-09-26T21:29:19.355Z,12.10
2017-09-26T21:31:47.477Z,12.10
2017-09-26T21:34:15.633Z,12.10
2017-09-26T21:36:43.784Z,12.00
2017-09-26T21:39:12.708Z,12.00
2017-09-26T21:41:40.858Z,12.00
2017-09-26T21:44:08.999Z,12.00
2017-09-26T21:46:37.162Z,12.00
2017-09-26T21:49:05.315Z,12.00
2017-09-26T21:51:33.455Z,12.00
2017-09-26T21:54:01.621Z,12.00
2017-09-26T21:56:29.770Z,11.90
2017-09-26T21:58:58.702Z,11.90
2017-09-26T22:01:27.637Z,11.90
2017-09-26T22:03:55.810Z,11.90
2017-09-26T22:06:23.958Z,11.90
2017-09-26T22:08:52.258Z,11.80
2017-09-26T22:11:20.427Z,11.80
2017-09-26T22:13:48.565Z,11.80
2017-09-26T22:16:17.490Z,11.70
2017-09-26T22:18:45.633Z,11.70
2017-09-26T22:21:13.799Z,11.70
2017-09-26T22:23:41.942Z,11.70
2017-09-26T22:26:10.071Z,11.70
2017-09-26T22:28:38.221Z,11.60
2017-09-26T22:31:06.375Z,11.60
2017-09-26T22:33:34.545Z,11.60
2017-09-26T22:36:02.672Z,11.60
2017-09-26T22:38:31.585Z,11.60
2017-09-26T22:40:59.751Z,11.50
2017-09-26T22:43:27.962Z,11.60
2017-09-26T22:45:56.129Z,11.50
2017-09-26T22:48:24.270Z,11.60
2017-09-26T22:50:52.459Z,11.50
2017-09-26T22:53:20.596Z,11.50
2017-09-26T22:55:49.508Z,11.50
2017-09-26T22:58:17.667Z,11.50
2017-09-26T23:00:46.576Z,11.40
2017-09-26T23:03:14.742Z,11.40
2017-09-26T23:05:42.888Z,11.40
2017-09-26T23:08:11.835Z,11.40
2017-09-26T23:10:40.001Z,11.30
2017-09-26T23:13:08.167Z,11.30
2017-09-26T23:15:36.288Z,11.30
2017-09-26T23:18:05.240Z,11.30
2017-09-26T23:20:33.397Z,11.20
2017-09-26T23:23:01.539Z,11.20
2017-09-26T23:25:30.467Z,11.20
2017-09-26T23:27:58.618Z,11.10
2017-09-26T23:30:26.798Z,11.10
2017-09-26T23:32:54.943Z,11.10
2017-09-26T23:35:23.847Z,11.10
2017-09-26T23:37:52.039Z,11.10
2017-09-26T23:40:20.175Z,11.10
2017-09-26T23:42:49.103Z,11.10
2017-09-26T23:45:17.241Z,11.10
2017-09-26T23:47:45.508Z,11.20
2017-09-26T23:50:13.651Z,11.20
2017-09-26T23:52:41.778Z,11.20
2017-09-26T23:55:09.940Z,11.30
2017-09-26T23:57:38.077Z,11.30
